Time;durP1;ratioP1;P1;durP2;ratioP2;P2;SDS_P1;SDS_P2;PMS_P1;PMS_P2;Temp;Humidity;BMP_temperature;BMP_pressure;BME280_temperature;BME280_humidity;BME280_pressure;Samples;Min_cycle;Max_cycle;Signal;HPM_P1;HPM_P2
2022/04/02 00:01:40;;;;;;;0.70;0.50;;;2.70;99.90;;;;;;5034379;28;20537;-71
2022/04/02 00:04:06;;;;;;;0.70;0.50;;;2.70;99.90;;;;;;5034379;28;20167;-71
2022/04/02 00:06:33;;;;;;;0.70;0.50;;;2.70;99.90;;;;;;5034061;28;20421;-70
2022/04/02 00:08:59;;;;;;;0.70;0.60;;;2.80;99.90;;;;;;5034042;28;20402;-70
2022/04/02 00:11:24;;;;;;;0.70;0.50;;;2.70;99.90;;;;;;5033991;28;20448;-69
2022/04/02 00:13:50;;;;;;;0.80;0.73;;;2.70;99.90;;;;;;5034183;28;20880;-70
2022/04/02 00:16:15;;;;;;;0.80;0.60;;;2.70;99.90;;;;;;5032257;28;20712;-70
2022/04/02 00:18:42;;;;;;;0.70;0.40;;;2.70;99.90;;;;;;5034091;28;20213;-71
2022/04/02 00:21:08;;;;;;;1.00;0.90;;;2.70;99.90;;;;;;5032866;28;20237;-71
2022/04/02 00:23:39;;;;;;;1.43;0.87;;;2.70;99.90;;;;;;5033837;28;20536;-70
2022/04/02 00:26:09;;;;;;;0.70;0.43;;;2.70;99.90;;;;;;5033205;28;20192;-71
2022/04/02 00:28:36;;;;;;;1.00;0.87;;;2.70;99.90;;;;;;5033925;28;20418;-71
2022/04/02 00:31:03;;;;;;;0.70;0.50;;;2.70;99.90;;;;;;5033801;28;20884;-70
2022/04/02 00:33:28;;;;;;;0.70;0.40;;;2.80;99.90;;;;;;5034077;28;20417;-70
2022/04/02 00:35:54;;;;;;;0.70;0.50;;;2.80;99.90;;;;;;5032109;28;20464;-70
2022/04/02 00:38:20;;;;;;;0.70;0.47;;;2.80;99.90;;;;;;5033739;28;20243;-70
2022/04/02 00:40:46;;;;;;;0.80;0.70;;;2.80;99.90;;;;;;5033560;28;20510;-71
2022/04/02 00:43:24;;;;;;;0.80;0.60;;;2.80;99.90;;;;;;5032315;28;20195;-71
2022/04/02 00:45:51;;;;;;;0.70;0.50;;;2.80;99.90;;;;;;5033135;28;20186;-70
2022/04/02 00:48:17;;;;;;;0.70;0.60;;;2.70;99.90;;;;;;5033539;28;20405;-70
2022/04/02 00:50:45;;;;;;;0.70;0.57;;;2.70;99.90;;;;;;5032270;28;20410;-70
2022/04/02 00:53:11;;;;;;;0.80;0.80;;;2.70;99.90;;;;;;5033359;28;20406;-70
2022/04/02 00:55:37;;;;;;;0.70;0.60;;;2.70;99.90;;;;;;5033108;28;21035;-70
2022/04/02 00:58:07;;;;;;;0.70;0.50;;;2.70;99.90;;;;;;5031573;28;20497;-70
2022/04/02 01:00:34;;;;;;;0.70;0.50;;;2.70;99.90;;;;;;5033501;28;20194;-70
2022/04/02 01:03:00;;;;;;;0.80;0.60;;;2.70;99.90;;;;;;5033109;28;20457;-70
2022/04/02 01:05:26;;;;;;;0.70;0.50;;;2.70;99.90;;;;;;5032782;28;20521;-70
2022/04/02 01:07:51;;;;;;;0.70;0.50;;;2.70;99.90;;;;;;5031889;28;20442;-71
2022/04/02 01:10:17;;;;;;;0.70;0.50;;;2.70;99.90;;;;;;5033247;28;20763;-71
2022/04/02 01:12:46;;;;;;;0.70;0.50;;;2.70;99.90;;;;;;5031638;28;20179;-70
2022/04/02 01:15:12;;;;;;;0.70;0.60;;;2.70;99.90;;;;;;5031421;28;20218;-70
2022/04/02 01:17:40;;;;;;;0.70;0.47;;;2.70;99.90;;;;;;5033012;28;20434;-70
2022/04/02 01:20:09;;;;;;;0.70;0.50;;;2.70;99.90;;;;;;5032998;28;20823;-69
2022/04/02 01:22:35;;;;;;;0.70;0.50;;;2.70;99.90;;;;;;5032767;28;20541;-70
2022/04/02 01:25:01;;;;;;;0.80;0.70;;;2.70;99.90;;;;;;5032522;28;20422;-69
2022/04/02 01:27:26;;;;;;;0.70;0.50;;;2.70;99.90;;;;;;5032726;28;20548;-70
2022/04/02 01:29:52;;;;;;;0.70;0.50;;;2.70;99.90;;;;;;5032744;28;20232;-70
2022/04/02 01:32:17;;;;;;;0.70;0.50;;;2.70;99.90;;;;;;5032588;28;20190;-70
2022/04/02 01:34:43;;;;;;;0.70;0.53;;;2.70;99.90;;;;;;5032302;28;20175;-71
2022/04/02 01:37:11;;;;;;;0.70;0.47;;;2.70;99.90;;;;;;5032711;28;20246;-70
2022/04/02 01:39:37;;;;;;;0.70;0.47;;;2.70;99.90;;;;;;5032615;28;20171;-70
2022/04/02 01:42:06;;;;;;;0.70;0.50;;;2.60;99.90;;;;;;5032474;28;20449;-70
2022/04/02 01:44:32;;;;;;;1.57;0.70;;;2.70;99.90;;;;;;5032173;28;20174;-70
2022/04/02 01:46:57;;;;;;;0.70;0.50;;;2.70;99.90;;;;;;5032473;28;20398;-70
2022/04/02 01:49:23;;;;;;;1.00;0.90;;;2.70;99.90;;;;;;5032432;28;20768;-70
2022/04/02 01:51:48;;;;;;;0.70;0.50;;;2.70;99.90;;;;;;5032458;28;20190;-70
2022/04/02 01:54:14;;;;;;;0.70;0.50;;;2.70;99.90;;;;;;5032137;28;20214;-69
2022/04/02 01:56:39;;;;;;;0.70;0.50;;;2.70;99.90;;;;;;5032001;28;20230;-70
2022/04/02 01:59:05;;;;;;;0.70;0.50;;;2.60;99.90;;;;;;5032130;28;20179;-70
2022/04/02 02:01:31;;;;;;;0.70;0.50;;;2.60;99.90;;;;;;5032259;28;20250;-70
2022/04/02 02:03:56;;;;;;;0.70;0.50;;;2.60;99.90;;;;;;5030855;28;20171;-70
2022/04/02 02:06:22;;;;;;;0.70;0.50;;;2.60;99.90;;;;;;5031967;28;20191;-70
2022/04/02 02:08:48;;;;;;;0.70;0.50;;;2.60;99.90;;;;;;5031480;28;20513;-70
2022/04/02 02:11:14;;;;;;;0.70;0.50;;;2.60;99.90;;;;;;5032146;28;20417;-70
2022/04/02 02:13:40;;;;;;;0.80;0.60;;;2.60;99.90;;;;;;5031967;28;20178;-70
2022/04/02 02:16:05;;;;;;;0.70;0.40;;;2.60;99.90;;;;;;5031735;28;20426;-70
2022/04/02 02:18:31;;;;;;;0.70;0.50;;;2.60;99.90;;;;;;5032064;28;20213;-70
2022/04/02 02:20:57;;;;;;;0.70;0.50;;;2.60;99.90;;;;;;5032029;28;20660;-70
2022/04/02 02:23:22;;;;;;;0.70;0.40;;;2.60;99.90;;;;;;5031834;28;20603;-70
2022/04/02 02:25:47;;;;;;;0.70;0.50;;;2.60;99.90;;;;;;5031459;28;20199;-69
2022/04/02 02:28:15;;;;;;;0.70;0.50;;;2.60;99.90;;;;;;5031817;28;20191;-70
2022/04/02 02:30:41;;;;;;;0.70;0.50;;;2.60;99.90;;;;;;5031941;28;20167;-70
2022/04/02 02:35:51;;;;;;;0.70;0.50;;;2.60;99.90;;;;;;5031500;28;20436;-70
2022/04/02 02:38:21;;;;;;;0.70;0.50;;;2.60;99.90;;;;;;5030584;28;20418;-69
2022/04/02 02:40:49;;;;;;;0.70;0.50;;;2.60;99.90;;;;;;5031848;28;20775;-71
2022/04/02 02:43:16;;;;;;;0.70;0.50;;;2.60;99.90;;;;;;5031750;28;20455;-70
2022/04/02 02:45:42;;;;;;;0.70;0.50;;;2.60;99.90;;;;;;5031429;28;20433;-70
2022/04/02 02:48:07;;;;;;;0.70;0.50;;;2.60;99.90;;;;;;5030533;28;20410;-70
2022/04/02 02:50:33;;;;;;;0.80;0.60;;;2.60;99.90;;;;;;5031669;28;20249;-70
2022/04/02 02:52:59;;;;;;;0.70;0.50;;;2.60;99.90;;;;;;5031778;28;20633;-71
2022/04/02 02:55:25;;;;;;;0.70;0.50;;;2.60;99.90;;;;;;5031315;28;20454;-70
2022/04/02 02:57:50;;;;;;;0.70;0.50;;;2.50;99.90;;;;;;5031663;28;20417;-70
2022/04/02 03:00:17;;;;;;;0.70;0.50;;;2.50;99.90;;;;;;5031716;28;20207;-69
2022/04/02 03:02:43;;;;;;;0.70;0.40;;;2.50;99.90;;;;;;5031721;28;20538;-70
2022/04/02 03:05:12;;;;;;;0.70;0.50;;;2.50;99.90;;;;;;5031134;28;20975;-70
2022/04/02 03:07:48;;;;;;;0.70;0.50;;;2.50;99.90;;;;;;5031611;28;20460;-69
2022/04/02 03:10:27;;;;;;;0.70;0.50;;;2.50;99.90;;;;;;5031632;28;20436;-70
2022/04/02 03:12:57;;;;;;;0.70;0.50;;;2.50;99.90;;;;;;5031254;28;20402;-70
2022/04/02 03:15:24;;;;;;;0.77;0.67;;;2.50;99.90;;;;;;5031097;28;20426;-70
2022/04/02 03:17:51;;;;;;;0.70;0.50;;;2.50;99.90;;;;;;5031468;28;20446;-70
2022/04/02 03:20:19;;;;;;;0.70;0.50;;;2.60;99.90;;;;;;5032170;28;20406;-71
2022/04/02 03:22:47;;;;;;;0.70;0.50;;;2.60;99.90;;;;;;5035336;28;21062;-70
2022/04/02 03:25:20;;;;;;;0.80;0.80;;;2.50;99.90;;;;;;5034763;28;20461;-70
2022/04/02 03:27:46;;;;;;;0.70;0.50;;;2.50;99.90;;;;;;5035113;28;20394;-70
2022/04/02 03:30:15;;;;;;;0.70;0.50;;;2.50;99.90;;;;;;5034851;28;20398;-70
2022/04/02 03:32:41;;;;;;;0.70;0.50;;;2.50;99.90;;;;;;5034973;28;20497;-70
2022/04/02 03:35:08;;;;;;;0.70;0.43;;;2.50;99.90;;;;;;5034599;28;20438;-70
2022/04/02 03:37:38;;;;;;;0.70;0.50;;;2.50;99.90;;;;;;5034878;28;20416;-70
2022/04/02 03:40:09;;;;;;;0.70;0.50;;;2.50;99.90;;;;;;5034870;28;20414;-70
2022/04/02 03:42:38;;;;;;;0.80;0.50;;;2.50;99.90;;;;;;5034717;28;20449;-70
2022/04/02 03:45:05;;;;;;;0.70;0.50;;;2.50;99.90;;;;;;5034278;28;20414;-70
2022/04/02 03:47:31;;;;;;;0.70;0.47;;;2.50;99.90;;;;;;5034722;28;20406;-70
2022/04/02 03:49:57;;;;;;;0.70;0.50;;;2.50;99.90;;;;;;5034584;28;20416;-70
2022/04/02 03:52:22;;;;;;;0.70;0.50;;;2.50;99.90;;;;;;5034661;28;20398;-70
2022/04/02 03:54:48;;;;;;;0.70;0.50;;;2.50;99.90;;;;;;5034115;28;20301;-70
2022/04/02 03:57:15;;;;;;;0.70;0.50;;;2.50;99.90;;;;;;5034409;28;20167;-69
2022/04/02 03:59:41;;;;;;;0.70;0.50;;;2.50;99.90;;;;;;5034543;28;20258;-69
2022/04/02 04:02:08;;;;;;;0.70;0.40;;;2.60;99.90;;;;;;5034430;28;20450;-71
2022/04/02 04:04:34;;;;;;;0.70;0.50;;;2.60;99.90;;;;;;5034359;28;20452;-69
2022/04/02 04:07:00;;;;;;;0.70;0.50;;;2.60;99.90;;;;;;5032634;28;20414;-70
2022/04/02 04:09:26;;;;;;;0.70;0.50;;;2.60;99.90;;;;;;5034184;28;20225;-70
2022/04/02 04:11:52;;;;;;;1.53;0.70;;;2.60;99.90;;;;;;5034217;28;20468;-70
2022/04/02 04:14:19;;;;;;;0.70;0.50;;;2.60;99.90;;;;;;5034075;28;20464;-70
2022/04/02 04:16:45;;;;;;;0.70;0.40;;;2.60;99.90;;;;;;5033832;28;20441;-70
2022/04/02 04:19:11;;;;;;;0.70;0.50;;;2.60;99.90;;;;;;5032930;28;20513;-70
2022/04/02 04:21:36;;;;;;;0.80;0.60;;;2.60;99.90;;;;;;5032852;28;20175;-70
2022/04/02 04:24:07;;;;;;;0.70;0.50;;;2.60;99.90;;;;;;5034002;28;20172;-70
2022/04/02 04:26:33;;;;;;;0.70;0.50;;;2.60;99.90;;;;;;5033732;28;20183;-70
2022/04/02 04:28:59;;;;;;;0.70;0.50;;;2.60;99.90;;;;;;5033957;28;20945;-70
2022/04/02 04:31:25;;;;;;;1.10;1.00;;;2.60;99.90;;;;;;5033634;28;20446;-70
2022/04/02 04:33:50;;;;;;;0.70;0.50;;;2.60;99.90;;;;;;5033382;28;20178;-70
2022/04/02 04:36:18;;;;;;;0.70;0.50;;;2.50;99.90;;;;;;5033644;28;20195;-70
2022/04/02 04:38:45;;;;;;;0.70;0.40;;;2.60;99.90;;;;;;5033848;28;20255;-70
2022/04/02 04:41:11;;;;;;;0.70;0.50;;;2.50;99.90;;;;;;5033770;28;20418;-71
2022/04/02 04:43:37;;;;;;;0.70;0.63;;;2.50;99.90;;;;;;5033704;28;20488;-70
2022/04/02 04:46:03;;;;;;;0.70;0.50;;;2.50;99.90;;;;;;5033583;28;20430;-70
2022/04/02 04:48:29;;;;;;;0.70;0.50;;;2.50;99.90;;;;;;5033761;28;20486;-70
2022/04/02 04:50:55;;;;;;;0.70;0.47;;;2.50;99.90;;;;;;5033743;28;20490;-70
2022/04/02 04:53:21;;;;;;;0.70;0.50;;;2.50;99.90;;;;;;5033420;28;20832;-70
2022/04/02 04:55:47;;;;;;;0.70;0.50;;;2.50;99.90;;;;;;5033189;28;20430;-69
2022/04/02 04:58:12;;;;;;;0.70;0.50;;;2.50;99.90;;;;;;5033491;28;20514;-73
2022/04/02 05:00:40;;;;;;;0.70;0.50;;;2.50;99.90;;;;;;5033826;28;20425;-70
2022/04/02 05:03:06;;;;;;;0.70;0.50;;;2.40;99.90;;;;;;5033321;28;20253;-70
2022/04/02 05:05:33;;;;;;;0.70;0.50;;;2.40;99.90;;;;;;5032886;28;20426;-70
2022/04/02 05:07:59;;;;;;;0.70;0.40;;;2.40;99.90;;;;;;5032012;28;20174;-70
2022/04/02 05:10:25;;;;;;;0.70;0.50;;;2.40;99.90;;;;;;5033009;28;20436;-70
2022/04/02 05:12:51;;;;;;;0.70;0.50;;;2.40;99.90;;;;;;5033198;28;20402;-69
2022/04/02 05:15:17;;;;;;;0.70;0.50;;;2.40;99.90;;;;;;5032757;28;20830;-70
2022/04/02 05:17:43;;;;;;;0.70;0.50;;;2.40;99.90;;;;;;5033010;28;20176;-70
2022/04/02 05:20:11;;;;;;;0.70;0.50;;;2.40;99.90;;;;;;5032926;28;20183;-70
2022/04/02 05:22:37;;;;;;;0.70;0.50;;;2.40;99.90;;;;;;5032844;28;20453;-71
2022/04/02 05:25:03;;;;;;;0.70;0.50;;;2.40;99.90;;;;;;5032449;28;20423;-70
2022/04/02 05:27:29;;;;;;;0.70;0.50;;;2.40;99.90;;;;;;5031893;28;20905;-70
2022/04/02 05:29:55;;;;;;;0.70;0.50;;;2.40;99.90;;;;;;5032846;28;20494;-70
2022/04/02 05:32:21;;;;;;;0.70;0.50;;;2.40;99.90;;;;;;5032951;28;20537;-70
2022/04/02 05:34:47;;;;;;;0.70;0.50;;;2.50;99.90;;;;;;5032714;28;20430;-70
2022/04/02 05:37:13;;;;;;;0.70;0.40;;;2.50;99.90;;;;;;5032564;28;20621;-70
2022/04/02 05:39:41;;;;;;;0.70;0.50;;;2.50;99.90;;;;;;5032707;28;20199;-71
2022/04/02 05:42:07;;;;;;;0.70;0.47;;;2.50;99.90;;;;;;5032612;28;20971;-69
2022/04/02 05:44:33;;;;;;;0.70;0.50;;;2.60;99.90;;;;;;5032451;28;20740;-70
2022/04/02 05:46:59;;;;;;;0.70;0.60;;;2.60;99.90;;;;;;5032290;28;20403;-70
2022/04/02 05:49:24;;;;;;;0.70;0.50;;;2.60;99.90;;;;;;5032559;28;20186;-70
2022/04/02 05:51:50;;;;;;;0.70;0.43;;;2.60;99.90;;;;;;5032318;28;20170;-70
2022/04/02 05:54:16;;;;;;;0.70;0.50;;;2.70;99.90;;;;;;5032276;28;20187;-70
2022/04/02 05:56:42;;;;;;;0.70;0.50;;;2.70;99.90;;;;;;5031972;28;20188;-70
2022/04/02 05:59:08;;;;;;;0.70;0.50;;;2.70;99.90;;;;;;5032433;28;20191;-69
2022/04/02 06:01:35;;;;;;;0.70;0.50;;;2.80;99.90;;;;;;5032165;28;20468;-70
2022/04/02 06:04:01;;;;;;;0.70;0.50;;;2.80;99.90;;;;;;5032261;28;20768;-70
2022/04/02 06:06:26;;;;;;;0.70;0.50;;;2.80;99.90;;;;;;5031790;28;20430;-70
2022/04/02 06:08:52;;;;;;;0.70;0.50;;;2.80;99.90;;;;;;5032132;28;20402;-70
2022/04/02 06:11:17;;;;;;;0.70;0.50;;;2.90;99.90;;;;;;5030933;28;20167;-69
2022/04/02 06:13:43;;;;;;;0.70;0.50;;;2.90;99.90;;;;;;5032219;28;20534;-69
2022/04/02 06:16:09;;;;;;;0.70;0.50;;;2.90;99.90;;;;;;5031693;28;20191;-70
2022/04/02 06:18:37;;;;;;;0.70;0.50;;;3.00;99.90;;;;;;5030888;28;20326;-69
2022/04/02 06:21:03;;;;;;;0.70;0.47;;;3.00;99.90;;;;;;5032036;28;20178;-69
2022/04/02 06:23:30;;;;;;;0.70;0.50;;;3.10;99.90;;;;;;5031967;28;20462;-70
2022/04/02 06:25:56;;;;;;;0.70;0.60;;;3.10;99.90;;;;;;5031859;28;20198;-70
2022/04/02 06:28:22;;;;;;;0.70;0.50;;;3.20;99.90;;;;;;5031985;28;20491;-69
2022/04/02 06:30:48;;;;;;;0.70;0.50;;;3.20;99.90;;;;;;5031997;28;20495;-69
2022/04/02 06:33:13;;;;;;;0.70;0.50;;;3.30;99.90;;;;;;5030673;28;20935;-70
2022/04/02 06:35:39;;;;;;;0.70;0.50;;;3.40;99.90;;;;;;5031663;28;20210;-70
2022/04/02 06:38:05;;;;;;;0.80;0.60;;;3.40;99.90;;;;;;5031985;28;20258;-72
2022/04/02 06:40:31;;;;;;;0.70;0.60;;;3.50;99.90;;;;;;5032030;28;20450;-69
2022/04/02 06:42:57;;;;;;;0.70;0.50;;;3.50;99.90;;;;;;5031984;28;20204;-69
2022/04/02 06:45:23;;;;;;;0.70;0.50;;;3.50;99.90;;;;;;5031433;28;20183;-69
2022/04/02 06:47:49;;;;;;;0.70;0.50;;;3.60;99.90;;;;;;5031852;28;20441;-70
2022/04/02 06:50:15;;;;;;;0.70;0.50;;;3.60;99.90;;;;;;5030455;28;20796;-70
2022/04/02 06:52:42;;;;;;;0.70;0.50;;;3.70;99.90;;;;;;5031684;28;20577;-69
2022/04/02 06:55:11;;;;;;;0.70;0.50;;;3.70;99.90;;;;;;5032046;28;20492;-68
2022/04/02 06:57:44;;;;;;;0.70;0.50;;;3.70;99.90;;;;;;5035674;28;20779;-69
2022/04/02 07:00:11;;;;;;;0.80;0.73;;;3.80;99.90;;;;;;5035731;28;20850;-69
2022/04/02 07:02:37;;;;;;;0.70;0.50;;;3.80;99.90;;;;;;5035542;28;20449;-69
2022/04/02 07:05:03;;;;;;;0.70;0.50;;;3.90;99.90;;;;;;5035227;28;20418;-69
2022/04/02 07:07:29;;;;;;;0.70;0.50;;;4.00;99.90;;;;;;5035417;28;20406;-70
2022/04/02 07:09:54;;;;;;;0.70;0.50;;;4.00;99.90;;;;;;5035537;28;20421;-69
2022/04/02 07:12:20;;;;;;;0.70;0.47;;;4.10;99.90;;;;;;5035499;28;20689;-71
2022/04/02 07:14:45;;;;;;;1.53;1.37;;;4.20;99.90;;;;;;5034181;28;20305;-71
2022/04/02 07:17:11;;;;;;;0.90;0.60;;;4.30;99.90;;;;;;5035134;28;20167;-71
2022/04/02 07:19:38;;;;;;;0.70;0.50;;;4.30;99.90;;;;;;5035373;28;20525;-71
2022/04/02 07:22:10;;;;;;;0.70;0.50;;;4.40;99.90;;;;;;5033893;28;20203;-70
2022/04/02 07:24:40;;;;;;;0.70;0.50;;;4.50;99.90;;;;;;5035123;28;20955;-70
2022/04/02 07:27:07;;;;;;;0.70;0.50;;;4.50;99.90;;;;;;5034978;28;20410;-70
2022/04/02 07:29:34;;;;;;;0.70;0.50;;;4.60;99.90;;;;;;5033871;28;20934;-71
2022/04/02 07:32:00;;;;;;;0.70;0.50;;;4.70;99.90;;;;;;5034964;28;20419;-70
2022/04/02 07:34:26;;;;;;;0.70;0.50;;;4.80;99.90;;;;;;5034918;28;20414;-70
2022/04/02 07:37:15;;;;;;;0.87;0.87;;;4.80;99.90;;;;;;5034920;28;20460;-70
2022/04/02 07:40:18;;;;;;;0.70;0.50;;;4.90;99.90;;;;;;5035028;28;20402;-70
2022/04/02 07:43:14;;;;;;;2.50;2.30;;;5.00;99.90;;;;;;5032463;28;20460;-70
2022/04/02 07:45:41;;;;;;;0.70;0.50;;;5.00;99.90;;;;;;5034565;28;20418;-70
2022/04/02 07:48:09;;;;;;;1.00;0.60;;;5.10;99.90;;;;;;5034823;28;20406;-72
2022/04/02 07:50:41;;;;;;;0.70;0.50;;;5.20;99.90;;;;;;5034601;28;20437;-72
2022/04/02 07:53:14;;;;;;;0.70;0.50;;;5.20;99.90;;;;;;5034616;28;20412;-72
2022/04/02 07:55:41;;;;;;;1.53;1.10;;;5.30;99.90;;;;;;5034334;28;20484;-72
2022/04/02 07:58:11;;;;;;;0.70;0.50;;;5.40;99.90;;;;;;5034633;28;20434;-71
2022/04/02 08:00:39;;;;;;;0.70;0.50;;;5.50;99.90;;;;;;5034569;28;20409;-71
2022/04/02 08:03:08;;;;;;;0.70;0.60;;;5.60;99.90;;;;;;5034254;28;20456;-71
2022/04/02 08:05:34;;;;;;;0.70;0.50;;;5.70;99.90;;;;;;5033904;28;20479;-71
2022/04/02 08:08:01;;;;;;;0.70;0.50;;;5.70;99.90;;;;;;5033193;28;20410;-71
2022/04/02 08:10:28;;;;;;;0.70;0.50;;;5.80;99.90;;;;;;5034274;28;20411;-71
2022/04/02 08:12:57;;;;;;;0.70;0.50;;;5.90;99.90;;;;;;5032964;28;20501;-72
2022/04/02 08:15:24;;;;;;;0.70;0.50;;;6.00;99.90;;;;;;5033875;28;20556;-71
2022/04/02 08:17:55;;;;;;;0.70;0.50;;;6.10;99.90;;;;;;5034212;28;20456;-71
2022/04/02 08:20:24;;;;;;;0.70;0.50;;;6.20;99.90;;;;;;5034183;28;20398;-71
2022/04/02 08:22:50;;;;;;;0.70;0.50;;;6.40;99.90;;;;;;5034006;28;20462;-71
2022/04/02 08:25:16;;;;;;;0.70;0.50;;;6.60;99.90;;;;;;5032408;28;20442;-72
2022/04/02 08:28:11;;;;;;;0.90;0.80;;;7.00;99.90;;;;;;5034018;28;20406;-72
2022/04/02 08:30:59;;;;;;;0.70;0.50;;;7.40;99.90;;;;;;5033946;28;20452;-71
2022/04/02 08:33:34;;;;;;;0.90;0.70;;;7.90;99.90;;;;;;5033901;28;20981;-73
2022/04/02 08:36:34;;;;;;;0.93;0.87;;;8.50;99.90;;;;;;5033517;28;20488;-72
2022/04/02 08:39:03;;;;;;;0.90;0.60;;;8.90;99.90;;;;;;5033818;28;20402;-72
2022/04/02 08:41:43;;;;;;;1.17;0.73;;;9.10;99.90;;;;;;5032466;28;20465;-72
2022/04/02 08:44:30;;;;;;;0.70;0.50;;;9.20;99.90;;;;;;5033717;28;20413;-72
2022/04/02 08:47:20;;;;;;;0.70;0.53;;;9.10;99.90;;;;;;5032063;28;20505;-72
2022/04/02 08:50:01;;;;;;;0.70;0.50;;;9.20;99.90;;;;;;5033853;28;20397;-71
2022/04/02 08:52:55;;;;;;;0.80;0.60;;;9.30;99.90;;;;;;5033567;28;20485;-72
2022/04/02 08:56:03;;;;;;;0.70;0.50;;;9.40;99.90;;;;;;5032685;28;20485;-72
2022/04/02 08:59:04;;;;;;;1.80;1.33;;;9.50;99.90;;;;;;5032317;28;20422;-72
2022/04/02 09:01:48;;;;;;;0.70;0.50;;;9.80;99.90;;;;;;5032397;28;20426;-72
2022/04/02 09:04:47;;;;;;;0.80;0.53;;;10.00;99.30;;;;;;5033055;28;20485;-72
2022/04/02 09:07:40;;;;;;;0.80;0.70;;;10.10;96.60;;;;;;5031617;28;20497;-71
2022/04/02 09:10:36;;;;;;;0.70;0.50;;;10.10;96.30;;;;;;5032919;28;20477;-72
2022/04/02 09:13:23;;;;;;;0.70;0.50;;;10.20;95.10;;;;;;5032857;28;20489;-71
2022/04/02 09:16:05;;;;;;;0.80;0.60;;;10.20;92.60;;;;;;5032330;28;20418;-71
2022/04/02 09:18:34;;;;;;;0.70;0.60;;;10.30;92.90;;;;;;5032353;28;20418;-71
2022/04/02 09:21:36;;;;;;;0.77;0.60;;;10.20;93.10;;;;;;5032745;28;20399;-72
2022/04/02 09:24:11;;;;;;;0.70;0.50;;;10.20;92.90;;;;;;5032587;28;20459;-72
2022/04/02 09:27:01;;;;;;;0.70;0.50;;;10.20;93.20;;;;;;5030867;28;20437;-72
2022/04/02 09:29:36;;;;;;;1.00;0.60;;;10.20;91.50;;;;;;5032528;28;20399;-72
2022/04/02 09:32:20;;;;;;;0.80;0.80;;;10.10;90.50;;;;;;5032450;28;20413;-72
2022/04/02 09:35:04;;;;;;;1.00;0.90;;;9.90;89.80;;;;;;5032336;28;20406;-72
2022/04/02 09:37:47;;;;;;;0.80;0.50;;;9.80;90.40;;;;;;5032143;28;20410;-72
2022/04/02 09:40:14;;;;;;;0.80;0.80;;;9.80;91.60;;;;;;5032423;28;20449;-72
2022/04/02 09:42:45;;;;;;;0.70;0.50;;;9.90;91.90;;;;;;5032322;28;20485;-72
2022/04/02 09:45:17;;;;;;;0.80;0.60;;;10.00;90.30;;;;;;5032156;28;20795;-72
2022/04/02 09:47:48;;;;;;;3.63;3.43;;;10.00;83.80;;;;;;5030917;28;20415;-72
2022/04/02 09:50:22;;;;;;;0.80;0.50;;;10.10;86.60;;;;;;5032055;28;20926;-72
2022/04/02 09:52:54;;;;;;;1.40;0.90;;;10.40;86.40;;;;;;5032334;28;20732;-73
2022/04/02 09:55:29;;;;;;;0.80;0.60;;;10.60;85.50;;;;;;5031886;28;20536;-71
2022/04/02 09:58:22;;;;;;;0.77;0.60;;;10.80;85.30;;;;;;5030699;28;20445;-72
2022/04/02 10:01:01;;;;;;;0.97;0.87;;;10.90;79.20;;;;;;5031835;28;20406;-72
2022/04/02 10:04:00;;;;;;;0.80;0.50;;;11.10;79.50;;;;;;5031714;28;20556;-72
2022/04/02 10:06:56;;;;;;;0.80;0.60;;;11.20;77.50;;;;;;5031314;28;20414;-71
2022/04/02 10:09:27;;;;;;;1.00;0.70;;;11.20;76.00;;;;;;5031252;28;20420;-71
2022/04/02 10:11:55;;;;;;;0.80;0.60;;;11.30;75.20;;;;;;5031753;28;20402;-72
2022/04/02 10:14:26;;;;;;;0.80;0.50;;;11.30;74.50;;;;;;5031905;28;20891;-72
2022/04/02 10:17:12;;;;;;;0.80;0.50;;;11.20;72.80;;;;;;5031364;28;20420;-73
2022/04/02 10:19:39;;;;;;;0.80;0.70;;;11.10;72.50;;;;;;5030283;28;20821;-71
2022/04/02 10:22:06;;;;;;;0.80;0.70;;;11.20;72.20;;;;;;5031656;28;20448;-70
2022/04/02 10:24:39;;;;;;;0.90;0.70;;;11.30;72.60;;;;;;5030266;28;20427;-70
2022/04/02 10:27:09;;;;;;;2.07;1.23;;;11.30;73.30;;;;;;5031261;28;20418;-70
2022/04/02 10:29:59;;;;;;;1.43;0.80;;;11.20;74.10;;;;;;5031090;28;20402;-70
2022/04/02 10:32:55;;;;;;;0.80;0.57;;;11.40;81.60;;;;;;5031535;28;20810;-71
2022/04/02 10:35:23;;;;;;;0.80;0.60;;;12.10;86.60;;;;;;5031338;28;20414;-71
2022/04/02 10:38:04;;;;;;;1.00;0.90;;;12.80;79.50;;;;;;5031381;28;20430;-71
2022/04/02 10:40:32;;;;;;;0.97;0.87;;;13.00;73.40;;;;;;5030282;28;20574;-70
2022/04/02 10:43:06;;;;;;;0.80;0.50;;;13.10;65.90;;;;;;5031428;28;20456;-70
2022/04/02 10:45:35;;;;;;;0.90;0.80;;;13.10;65.30;;;;;;5031100;28;20480;-70
2022/04/02 10:48:12;;;;;;;2.30;1.10;;;13.50;66.50;;;;;;5031335;28;20409;-71
2022/04/02 10:50:43;;;;;;;0.80;0.60;;;13.80;63.60;;;;;;5031379;28;20489;-70
2022/04/02 10:53:11;;;;;;;1.20;1.03;;;13.90;61.90;;;;;;5031272;28;20422;-70
2022/04/02 10:55:49;;;;;;;1.00;0.83;;;14.20;59.30;;;;;;5031040;28;20430;-70
2022/04/02 10:58:19;;;;;;;1.77;0.93;;;14.20;58.20;;;;;;5031363;28;20424;-71
2022/04/02 11:00:46;;;;;;;0.80;0.60;;;14.00;55.90;;;;;;5031275;28;20536;-71
2022/04/02 11:03:36;;;;;;;0.77;0.50;;;13.90;56.00;;;;;;5031284;28;20454;-70
2022/04/02 11:06:01;;;;;;;1.00;0.70;;;14.10;56.70;;;;;;5030790;28;20453;-71
2022/04/02 11:08:31;;;;;;;1.30;0.73;;;14.40;55.50;;;;;;5030540;28;20437;-71
2022/04/02 11:10:59;;;;;;;0.80;0.60;;;14.30;55.30;;;;;;5031161;28;20183;-72
2022/04/02 11:13:29;;;;;;;2.67;2.50;;;14.30;55.20;;;;;;5031167;28;20405;-71
2022/04/02 11:15:56;;;;;;;0.80;0.70;;;14.10;54.90;;;;;;5030670;28;20418;-70
2022/04/02 11:18:22;;;;;;;1.33;0.60;;;13.80;53.00;;;;;;5031350;28;20413;-70
2022/04/02 11:20:48;;;;;;;0.80;0.50;;;13.50;52.60;;;;;;5031077;28;20491;-71
2022/04/02 11:23:17;;;;;;;0.90;0.60;;;13.30;52.70;;;;;;5030404;28;20202;-71
2022/04/02 11:26:01;;;;;;;1.50;1.00;;;13.20;55.30;;;;;;5030129;28;20853;-71
2022/04/02 11:28:44;;;;;;;0.77;0.60;;;13.60;55.30;;;;;;5030934;28;20398;-71
2022/04/02 11:31:11;;;;;;;0.80;0.50;;;14.20;54.20;;;;;;5031299;28;20949;-71
2022/04/02 11:33:50;;;;;;;2.47;0.73;;;14.30;53.00;;;;;;5031008;28;20406;-71
2022/04/02 11:36:15;;;;;;;1.40;1.13;;;14.30;52.30;;;;;;5030157;28;20426;-71
2022/04/02 11:38:58;;;;;;;0.80;0.60;;;14.80;54.60;;;;;;5030517;28;20421;-71
2022/04/02 11:41:40;;;;;;;0.90;0.70;;;15.30;54.50;;;;;;5031834;28;20164;-71
2022/04/02 11:44:14;;;;;;;0.80;0.60;;;15.20;52.50;;;;;;5030644;28;21002;-71
2022/04/02 11:47:02;;;;;;;0.90;0.77;;;15.00;52.00;;;;;;5026551;28;20455;-71
2022/04/02 11:49:37;;;;;;;1.40;1.00;;;14.70;52.20;;;;;;5032022;28;20423;-71
2022/04/02 11:52:07;;;;;;;0.80;0.70;;;14.50;52.20;;;;;;5032839;28;20780;-71
2022/04/02 11:54:57;;;;;;;0.80;0.60;;;14.20;52.20;;;;;;5032795;28;20442;-70
2022/04/02 11:57:23;;;;;;;1.20;0.80;;;13.90;52.30;;;;;;5032319;28;20414;-71
2022/04/02 12:00:01;;;;;;;0.80;0.60;;;13.60;52.00;;;;;;5033855;28;20540;-70
2022/04/02 12:02:40;;;;;;;0.83;0.60;;;13.50;52.80;;;;;;5034080;28;20210;-70
2022/04/02 12:05:13;;;;;;;0.90;0.80;;;14.70;54.90;;;;;;5033794;28;20441;-70
2022/04/02 12:07:45;;;;;;;1.00;0.80;;;15.40;51.90;;;;;;5033732;28;20460;-71
2022/04/02 12:10:14;;;;;;;1.20;0.93;;;15.40;51.30;;;;;;5030743;28;20426;-70
2022/04/02 12:12:46;;;;;;;1.10;1.00;;;15.00;50.60;;;;;;5033890;28;20406;-71
2022/04/02 12:15:13;;;;;;;0.80;0.70;;;14.50;51.50;;;;;;5032489;28;20439;-70
2022/04/02 12:17:39;;;;;;;0.80;0.60;;;14.10;52.30;;;;;;5033408;28;20521;-70
2022/04/02 12:20:10;;;;;;;0.80;0.60;;;13.60;51.80;;;;;;5033576;28;20553;-70
2022/04/02 12:22:39;;;;;;;1.47;0.90;;;13.30;53.20;;;;;;5033854;28;20520;-71
2022/04/02 12:25:06;;;;;;;0.80;0.60;;;13.00;52.80;;;;;;5033694;28;20418;-70
2022/04/02 12:27:33;;;;;;;0.80;0.70;;;12.90;53.20;;;;;;5033530;28;20426;-70
2022/04/02 12:30:02;;;;;;;0.80;0.67;;;12.70;53.30;;;;;;5033427;28;20457;-70
2022/04/02 12:32:32;;;;;;;2.23;1.50;;;12.60;53.80;;;;;;5033146;28;20509;-70
2022/04/02 12:35:20;;;;;;;0.97;0.90;;;12.30;55.00;;;;;;5033481;28;20426;-70
2022/04/02 12:37:53;;;;;;;1.00;0.60;;;12.00;56.10;;;;;;5031471;28;20463;-71
2022/04/02 12:40:30;;;;;;;4.70;1.53;;;11.70;57.00;;;;;;5033327;28;20475;-71
2022/04/02 12:43:07;;;;;;;0.80;0.50;;;11.40;56.50;;;;;;5029612;28;20519;-70
2022/04/02 12:45:34;;;;;;;2.50;0.93;;;11.20;57.50;;;;;;5033015;28;20476;-71
2022/04/02 12:48:11;;;;;;;0.80;0.70;;;11.00;57.50;;;;;;5033187;28;20395;-71
2022/04/02 12:50:48;;;;;;;0.80;0.60;;;10.80;57.30;;;;;;5032982;28;20414;-70
2022/04/02 12:53:28;;;;;;;4.87;0.97;;;10.70;57.70;;;;;;5032313;28;20418;-71
2022/04/02 12:55:54;;;;;;;0.80;0.57;;;10.60;58.40;;;;;;5032732;28;20426;-71
2022/04/02 12:58:39;;;;;;;0.80;0.50;;;10.60;58.00;;;;;;5033149;28;20398;-71
2022/04/02 13:01:14;;;;;;;2.07;1.70;;;10.50;58.20;;;;;;5032860;28;20178;-71
2022/04/02 13:03:48;;;;;;;0.90;0.70;;;10.50;58.60;;;;;;5033103;28;21005;-71
2022/04/02 13:06:20;;;;;;;1.30;0.73;;;10.40;59.20;;;;;;5031449;28;20564;-70
2022/04/02 13:09:05;;;;;;;0.80;0.60;;;10.30;59.90;;;;;;5032776;28;20429;-70
2022/04/02 13:11:38;;;;;;;2.00;1.00;;;10.20;61.00;;;;;;5032830;28;20436;-71
2022/04/02 13:14:31;;;;;;;0.80;0.50;;;10.00;62.50;;;;;;5032792;28;20902;-71